Time;durP1;ratioP1;P1;durP2;ratioP2;P2;SDS_P1;SDS_P2;PMS_P1;PMS_P2;Temp;Humidity;BMP_temperature;BMP_pressure;BME280_temperature;BME280_humidity;BME280_pressure;Samples;Min_cycle;Max_cycle;Signal;HPM_P1;HPM_P2
2021/11/26 00:00:33;;;;;;;98.42;44.73;;;;;;;-0.95;82.96;97278.80;1684446;85;20997;-75
2021/11/26 00:03:03;;;;;;;97.02;44.42;;;;;;;-0.90;83.27;97285.77;1693082;83;21040;-75
2021/11/26 00:05:29;;;;;;;82.35;42.15;;;;;;;-0.89;82.83;97284.48;1707331;83;21017;-75
2021/11/26 00:07:56;;;;;;;84.15;42.13;;;;;;;-0.87;82.82;97287.94;1696394;85;21386;-76
2021/11/26 00:10:22;;;;;;;84.67;40.00;;;;;;;-0.85;83.11;97290.14;1694523;85;21410;-76
2021/11/26 00:12:56;;;;;;;87.33;39.05;;;;;;;-0.85;83.42;97287.53;1677958;85;21025;-76
2021/11/26 00:18:03;;;;;;;78.25;36.05;;;;;;;-0.90;83.07;97297.05;1682193;84;21334;-75
2021/11/26 00:20:25;;;;;;;78.90;36.30;;;;;;;-0.92;82.96;97292.70;1686048;84;21379;-75
2021/11/26 00:22:51;;;;;;;75.03;36.90;;;;;;;-0.91;83.39;97298.34;1680979;85;21101;-75
2021/11/26 00:25:18;;;;;;;78.92;38.23;;;;;;;-0.90;82.87;97293.16;1682250;85;21033;-75
2021/11/26 00:27:44;;;;;;;85.83;42.93;;;;;;;-0.90;82.77;97287.95;1682414;84;20989;-75
2021/11/26 00:30:11;;;;;;;82.70;41.23;;;;;;;-0.83;82.79;97281.89;1682077;84;20979;-75
2021/11/26 00:32:38;;;;;;;81.47;40.03;;;;;;;-0.80;82.94;97278.02;1686382;84;21051;-75
2021/11/26 00:35:06;;;;;;;82.20;40.43;;;;;;;-0.74;82.89;97268.08;1695792;84;21060;-75
2021/11/26 00:37:32;;;;;;;89.32;42.25;;;;;;;-0.70;82.62;97261.99;1681528;84;21061;-75
2021/11/26 00:39:59;;;;;;;84.10;40.35;;;;;;;-0.73;83.36;97261.12;1696112;84;21022;-75
2021/11/26 00:42:25;;;;;;;81.87;39.90;;;;;;;-0.76;82.99;97254.17;1696156;84;21010;-75
2021/11/26 00:44:52;;;;;;;95.65;42.53;;;;;;;-0.74;82.74;97256.78;1684886;84;21037;-75
2021/11/26 00:47:20;;;;;;;91.57;44.08;;;;;;;-0.76;82.88;97250.69;1676956;85;21018;-75
2021/11/26 00:49:48;;;;;;;98.20;46.02;;;;;;;-0.77;82.65;97247.23;1684205;84;21455;-76
2021/11/26 00:52:14;;;;;;;101.95;45.12;;;;;;;-0.78;83.48;97244.20;1684091;84;21037;-76
2021/11/26 00:54:41;;;;;;;96.17;45.28;;;;;;;-0.78;82.76;97238.12;1683988;85;21048;-76
2021/11/26 00:57:08;;;;;;;94.97;45.88;;;;;;;-0.75;83.08;97232.94;1690421;84;20962;-76
2021/11/26 00:59:36;;;;;;;97.92;45.25;;;;;;;-0.73;82.83;97229.47;1679615;84;21005;-76
2021/11/26 01:02:04;;;;;;;96.28;44.05;;;;;;;-0.77;82.68;97232.92;1679152;85;21013;-76
2021/11/26 01:04:31;;;;;;;99.62;44.63;;;;;;;-0.75;83.15;97233.79;1679367;84;20998;-76
2021/11/26 01:06:58;;;;;;;102.75;44.95;;;;;;;-0.76;82.99;97233.36;1698166;84;21044;-76
2021/11/26 01:09:25;;;;;;;93.27;44.38;;;;;;;-0.77;82.51;97229.02;1683466;84;21016;-76
2021/11/26 01:11:52;;;;;;;96.60;44.80;;;;;;;-0.78;82.88;97234.22;1684019;85;21037;-76
2021/11/26 01:14:18;;;;;;;103.05;46.20;;;;;;;-0.75;82.96;97222.08;1689815;85;21068;-75
2021/11/26 01:16:45;;;;;;;89.47;45.12;;;;;;;-0.71;82.59;97215.17;1654498;85;21033;-75
2021/11/26 01:19:11;;;;;;;93.67;43.25;;;;;;;-0.72;82.50;97215.59;1653035;86;21044;-75
2021/11/26 01:21:38;;;;;;;101.27;46.13;;;;;;;-0.73;82.66;97203.87;1652819;87;21025;-75
2021/11/26 01:24:05;;;;;;;97.00;44.65;;;;;;;-0.69;82.59;97202.60;1652785;86;21037;-75
2021/11/26 01:26:31;;;;;;;92.60;42.73;;;;;;;-0.67;82.77;97202.16;1653232;86;21044;-75
2021/11/26 01:28:58;;;;;;;89.47;42.48;;;;;;;-0.64;82.73;97201.30;1684555;83;21001;-75
2021/11/26 01:31:24;;;;;;;86.92;42.88;;;;;;;-0.59;82.47;97198.27;1681810;85;21046;-75
2021/11/26 01:33:53;;;;;;;85.67;40.85;;;;;;;-0.56;82.69;97196.11;1682640;84;21005;-76
2021/11/26 01:36:20;;;;;;;87.92;41.25;;;;;;;-0.52;82.77;97190.47;1683871;85;21065;-76
2021/11/26 01:38:46;;;;;;;79.77;39.42;;;;;;;-0.46;82.74;97194.41;1682674;84;21402;-76
2021/11/26 01:41:13;;;;;;;78.92;39.83;;;;;;;-0.47;82.51;97193.52;1689048;83;21482;-76
2021/11/26 01:43:39;;;;;;;73.35;36.13;;;;;;;-0.43;82.64;97186.16;1659785;83;20967;-75
2021/11/26 01:46:08;;;;;;;71.75;36.38;;;;;;;-0.39;82.55;97183.11;1677262;85;21064;-76
2021/11/26 01:48:40;;;;;;;73.47;35.92;;;;;;;-0.39;82.94;97176.61;1670440;86;21057;-75
2021/11/26 01:51:09;;;;;;;76.42;35.75;;;;;;;-0.33;82.77;97175.75;1670723;83;21428;-76
2021/11/26 01:53:38;;;;;;;69.30;33.63;;;;;;;-0.29;82.99;97164.48;1661787;84;21005;-76
2021/11/26 01:56:05;;;;;;;63.33;31.40;;;;;;;-0.24;83.01;97164.04;1669349;85;21382;-76
2021/11/26 01:58:32;;;;;;;65.28;31.48;;;;;;;-0.16;82.90;97156.23;1678458;85;21033;-77
2021/11/26 02:01:03;;;;;;;63.87;29.20;;;;;;;-0.10;82.82;97145.80;1673989;85;21026;-77
2021/11/26 02:03:30;;;;;;;54.18;25.52;;;;;;;-0.06;82.83;97140.14;1680852;84;20970;-76
2021/11/26 02:05:57;;;;;;;55.70;26.85;;;;;;;-0.04;82.71;97124.09;1692488;84;21428;-76
2021/11/26 02:08:23;;;;;;;48.00;24.67;;;;;;;-0.01;82.80;97121.05;1693881;83;20955;-76
2021/11/26 02:10:50;;;;;;;46.20;22.37;;;;;;;-0.01;83.05;97113.65;1692871;83;21041;-76
2021/11/26 02:13:16;;;;;;;45.33;22.85;;;;;;;-0.02;82.89;97102.38;1692939;83;21392;-76
2021/11/26 02:15:44;;;;;;;44.48;22.40;;;;;;;0.00;82.73;97104.98;1676909;83;20959;-76
2021/11/26 02:18:15;;;;;;;48.25;23.12;;;;;;;0.02;82.69;97103.66;1670623;85;21416;-76
2021/11/26 02:20:43;;;;;;;48.48;23.35;;;;;;;0.06;82.66;97113.20;1669358;85;21511;-76
2021/11/26 02:23:10;;;;;;;42.30;22.30;;;;;;;0.09;82.46;97103.64;1672216;85;21537;-76
2021/11/26 02:25:38;;;;;;;46.50;22.55;;;;;;;0.08;82.64;97104.97;1674112;85;21097;-77
2021/11/26 02:28:07;;;;;;;45.83;22.70;;;;;;;0.08;82.52;97104.52;1674283;85;21029;-76
2021/11/26 02:30:35;;;;;;;47.62;24.37;;;;;;;0.08;82.63;97102.36;1688869;83;20986;-76
2021/11/26 02:33:07;;;;;;;44.48;22.00;;;;;;;0.05;82.83;97090.64;1685167;83;20950;-76
2021/11/26 02:35:35;;;;;;;47.80;23.07;;;;;;;0.03;82.91;97085.88;1675912;85;21073;-76
2021/11/26 02:38:05;;;;;;;50.00;22.40;;;;;;;0.04;82.62;97075.88;1669347;85;21018;-76
2021/11/26 02:40:34;;;;;;;46.40;22.77;;;;;;;0.03;82.51;97072.85;1669265;85;21042;-76
2021/11/26 02:43:01;;;;;;;43.63;22.25;;;;;;;0.01;82.42;97072.85;1669514;86;21021;-76
2021/11/26 02:45:28;;;;;;;43.55;22.95;;;;;;;-0.02;82.33;97069.81;1674055;84;20994;-76
2021/11/26 02:47:55;;;;;;;43.92;22.73;;;;;;;-0.03;82.51;97071.97;1684617;84;21073;-76
2021/11/26 02:50:25;;;;;;;46.20;21.85;;;;;;;-0.01;82.29;97068.06;1680842;85;21448;-76
2021/11/26 02:52:53;;;;;;;46.53;21.42;;;;;;;-0.04;82.42;97065.03;1676660;85;21007;-76
2021/11/26 02:55:23;;;;;;;45.65;22.35;;;;;;;-0.06;82.48;97063.30;1677537;85;21108;-76
2021/11/26 02:57:51;;;;;;;45.20;22.60;;;;;;;-0.06;82.36;97066.78;1678074;85;21542;-76
2021/11/26 03:00:21;;;;;;;42.17;20.15;;;;;;;-0.09;82.37;97057.66;1669940;84;21427;-76
2021/11/26 03:02:48;;;;;;;41.28;21.07;;;;;;;-0.14;82.27;97052.90;1669436;86;21062;-76
2021/11/26 03:05:15;;;;;;;46.28;21.70;;;;;;;-0.13;82.42;97049.42;1669836;85;21045;-76
2021/11/26 03:07:41;;;;;;;43.08;21.85;;;;;;;-0.15;82.22;97048.57;1686846;84;21075;-76
2021/11/26 03:10:10;;;;;;;41.50;21.12;;;;;;;-0.19;82.19;97052.92;1688280;84;21025;-77
2021/11/26 03:12:36;;;;;;;43.55;20.88;;;;;;;-0.23;82.03;97044.68;1688333;84;21017;-77
2021/11/26 03:15:05;;;;;;;43.85;21.77;;;;;;;-0.26;82.20;97044.67;1678606;84;20962;-77
2021/11/26 03:17:31;;;;;;;42.93;21.73;;;;;;;-0.29;82.00;97033.83;1672131;86;21046;-77
2021/11/26 03:19:58;;;;;;;43.02;21.85;;;;;;;-0.33;82.29;97033.40;1670424;85;20998;-76
2021/11/26 03:22:24;;;;;;;40.00;20.57;;;;;;;-0.39;82.21;97030.81;1669720;86;21053;-76
2021/11/26 03:24:51;;;;;;;40.40;20.85;;;;;;;-0.43;82.23;97031.27;1669742;86;21010;-77
2021/11/26 03:27:17;;;;;;;42.60;20.82;;;;;;;-0.47;82.75;97029.95;1674678;85;21001;-77
2021/11/26 03:29:44;;;;;;;41.53;21.70;;;;;;;-0.54;82.69;97037.77;1667764;86;21061;-77
2021/11/26 03:32:10;;;;;;;41.25;21.15;;;;;;;-0.59;82.62;97036.91;1667832;86;20998;-77
2021/11/26 03:34:37;;;;;;;41.53;21.45;;;;;;;-0.62;82.61;97035.59;1668862;86;20991;-77
2021/11/26 03:37:04;;;;;;;42.35;21.48;;;;;;;-0.64;82.44;97032.14;1669593;86;21491;-77
2021/11/26 03:39:31;;;;;;;41.28;20.05;;;;;;;-0.69;82.71;97029.55;1670095;85;21094;-77
2021/11/26 03:41:58;;;;;;;44.20;20.72;;;;;;;-0.72;82.97;97024.77;1669789;85;21029;-77
2021/11/26 03:44:24;;;;;;;46.68;20.95;;;;;;;-0.74;82.73;97020.89;1671063;86;21062;-77
2021/11/26 03:46:51;;;;;;;43.90;20.92;;;;;;;-0.77;82.65;97021.30;1676594;85;21017;-77
2021/11/26 03:49:17;;;;;;;46.20;21.33;;;;;;;-0.83;82.58;97013.92;1676728;86;20997;-77
2021/11/26 03:51:43;;;;;;;38.65;19.85;;;;;;;-0.84;82.44;97013.92;1678956;85;21701;-77
2021/11/26 03:54:10;;;;;;;41.35;20.77;;;;;;;-0.87;82.57;97008.73;1695073;84;21076;-77
2021/11/26 03:56:37;;;;;;;40.25;20.45;;;;;;;-0.92;82.48;97011.77;1689651;84;21468;-77
2021/11/26 03:59:06;;;;;;;42.03;20.68;;;;;;;-0.96;82.63;97013.06;1666134;84;20979;-77
2021/11/26 04:01:32;;;;;;;42.95;21.05;;;;;;;-1.00;82.62;97007.42;1667809;86;21060;-77
2021/11/26 04:03:59;;;;;;;46.37;22.35;;;;;;;-1.04;82.74;97013.48;1664746;85;21050;-76
2021/11/26 04:06:26;;;;;;;52.85;21.97;;;;;;;-1.06;82.78;96994.42;1677182;84;20998;-76
2021/11/26 04:08:52;;;;;;;44.20;20.57;;;;;;;-1.10;82.75;96985.77;1675101;84;21001;-76
2021/11/26 04:11:19;;;;;;;43.75;21.48;;;;;;;-1.10;82.82;96992.69;1663844;85;21407;-76
2021/11/26 04:13:46;;;;;;;41.25;20.75;;;;;;;-1.13;83.08;96990.95;1643936;87;21061;-76
2021/11/26 04:16:14;;;;;;;48.15;23.32;;;;;;;-1.18;82.79;96990.08;1643894;87;21471;-76
2021/11/26 04:18:41;;;;;;;44.10;21.27;;;;;;;-1.16;82.84;96990.09;1649218;85;21025;-76
2021/11/26 04:21:08;;;;;;;46.10;21.30;;;;;;;-1.20;82.84;96982.72;1685647;84;21038;-76
2021/11/26 04:23:35;;;;;;;46.15;21.40;;;;;;;-1.24;82.83;96983.58;1683756;84;21045;-76
2021/11/26 04:26:02;;;;;;;44.90;21.68;;;;;;;-1.27;82.77;96980.55;1683682;85;21041;-76
2021/11/26 04:28:28;;;;;;;44.58;20.60;;;;;;;-1.30;82.84;96978.38;1688013;84;21455;-77
2021/11/26 04:30:55;;;;;;;50.58;22.37;;;;;;;-1.33;83.05;96975.34;1681351;84;21056;-76
2021/11/26 04:33:21;;;;;;;42.58;19.95;;;;;;;-1.34;82.86;96974.47;1682728;85;21036;-76
2021/11/26 04:35:49;;;;;;;42.83;20.45;;;;;;;-1.38;82.85;96975.74;1689183;85;21049;-76
2021/11/26 04:38:17;;;;;;;46.83;21.77;;;;;;;-1.41;83.02;96974.01;1676864;83;21457;-76
2021/11/26 04:40:44;;;;;;;40.48;20.90;;;;;;;-1.42;83.07;96972.73;1688010;83;21042;-76
2021/11/26 04:43:12;;;;;;;40.35;19.85;;;;;;;-1.46;83.11;96970.53;1679135;84;21400;-76
2021/11/26 04:45:39;;;;;;;43.10;20.85;;;;;;;-1.47;83.13;96962.31;1684105;84;21041;-76
2021/11/26 04:48:06;;;;;;;49.53;21.20;;;;;;;-1.49;83.26;96956.26;1684789;85;21467;-76
2021/11/26 04:50:33;;;;;;;42.20;21.27;;;;;;;-1.51;83.11;96953.66;1674801;84;21369;-76
2021/11/26 04:52:59;;;;;;;41.90;20.12;;;;;;;-1.55;83.07;96961.00;1687460;84;21554;-76
2021/11/26 04:55:27;;;;;;;43.90;21.52;;;;;;;-1.62;83.09;96954.92;1683443;84;21001;-77
2021/11/26 04:57:54;;;;;;;43.60;21.02;;;;;;;-1.64;83.41;96960.56;1681346;85;21053;-77
2021/11/26 05:00:22;;;;;;;44.77;21.73;;;;;;;-1.64;83.49;96967.06;1678366;84;21021;-77
2021/11/26 05:02:49;;;;;;;43.08;22.05;;;;;;;-1.68;83.61;96949.72;1690337;84;21431;-77
2021/11/26 05:05:16;;;;;;;48.73;22.98;;;;;;;-1.70;83.52;96944.97;1694090;84;21007;-77
2021/11/26 05:07:42;;;;;;;51.55;23.02;;;;;;;-1.69;83.53;96947.11;1683294;85;20994;-76
2021/11/26 05:10:11;;;;;;;50.00;23.47;;;;;;;-1.73;83.49;96940.60;1683624;84;21029;-76
2021/11/26 05:12:45;;;;;;;50.88;22.30;;;;;;;-1.71;83.48;96935.86;1691627;84;21021;-76
2021/11/26 05:15:07;;;;;;;43.80;23.32;;;;;;;-1.75;83.50;96931.07;1665296;85;21014;-76
2021/11/26 05:17:34;;;;;;;47.55;22.00;;;;;;;-1.76;83.59;96930.64;1667833;85;21021;-77
2021/11/26 05:20:01;;;;;;;44.05;23.18;;;;;;;-1.76;83.57;96917.23;1672170;85;21069;-76
2021/11/26 05:22:27;;;;;;;51.60;24.50;;;;;;;-1.81;83.91;96909.87;1676294;84;21068;-75
2021/11/26 05:24:53;;;;;;;48.73;23.42;;;;;;;-1.82;83.89;96905.55;1676419;84;21013;-75
2021/11/26 05:27:20;;;;;;;42.95;22.25;;;;;;;-1.82;83.84;96899.47;1687040;84;21502;-75
2021/11/26 05:29:47;;;;;;;48.08;22.40;;;;;;;-1.84;83.83;96899.91;1685352;84;21017;-75
2021/11/26 05:32:13;;;;;;;43.87;22.00;;;;;;;-1.83;84.00;96905.08;1685773;85;20990;-75
2021/11/26 05:34:39;;;;;;;48.68;21.02;;;;;;;-1.82;83.89;96905.96;1685977;85;20998;-75
2021/11/26 05:37:06;;;;;;;44.73;22.32;;;;;;;-1.81;84.16;96909.87;1684433;85;21010;-75
2021/11/26 05:39:32;;;;;;;49.42;21.50;;;;;;;-1.76;84.71;96919.84;1689470;84;20998;-75
2021/11/26 05:41:58;;;;;;;50.67;22.80;;;;;;;-1.75;84.37;96918.97;1686689;85;21018;-75
2021/11/26 05:44:25;;;;;;;44.55;21.37;;;;;;;-1.70;84.40;96907.30;1678759;85;21036;-76
2021/11/26 05:46:52;;;;;;;44.63;20.97;;;;;;;-1.71;84.08;96917.69;1671067;85;21464;-76
2021/11/26 05:49:18;;;;;;;46.08;21.40;;;;;;;-1.73;84.20;96912.48;1679931;85;21033;-76
2021/11/26 05:51:45;;;;;;;45.10;21.00;;;;;;;-1.74;83.94;96901.20;1684522;84;21033;-76
2021/11/26 05:54:11;;;;;;;46.92;21.65;;;;;;;-1.75;83.98;96894.70;1676381;84;21009;-76
2021/11/26 05:56:38;;;;;;;45.17;21.62;;;;;;;-1.77;84.01;96883.04;1674583;85;20995;-76
2021/11/26 05:59:04;;;;;;;41.63;20.68;;;;;;;-1.77;83.89;96884.76;1669730;85;21046;-75
2021/11/26 06:01:30;;;;;;;42.38;21.05;;;;;;;-1.80;84.12;96883.02;1656634;85;21455;-75
2021/11/26 06:03:57;;;;;;;39.60;20.27;;;;;;;-1.80;84.12;96883.44;1640794;87;21031;-75
2021/11/26 06:06:23;;;;;;;41.42;21.45;;;;;;;-1.79;84.10;96877.41;1640967;87;21069;-75
2021/11/26 06:08:50;;;;;;;44.50;21.10;;;;;;;-1.80;84.25;96862.24;1667020;85;21057;-75
2021/11/26 06:11:17;;;;;;;45.28;21.52;;;;;;;-1.75;84.34;96862.23;1650253;85;20997;-75
2021/11/26 06:13:43;;;;;;;52.67;23.42;;;;;;;-1.71;84.48;96862.68;1654458;87;21121;-75
2021/11/26 06:16:10;;;;;;;54.48;24.02;;;;;;;-1.67;84.52;96860.97;1676075;84;21041;-76
2021/11/26 06:18:36;;;;;;;53.42;25.20;;;;;;;-1.63;84.84;96860.96;1669318;86;21034;-76
2021/11/26 06:21:03;;;;;;;106.15;36.53;;;;;;;-1.64;86.16;96859.23;1667823;85;21446;-76
2021/11/26 06:23:29;;;;;;;278.40;74.07;;;;;;;-1.63;85.06;96859.66;1655950;86;21021;-76
2021/11/26 06:25:56;;;;;;;147.72;44.95;;;;;;;-1.64;84.59;96863.55;1667698;84;21016;-76
2021/11/26 06:28:22;;;;;;;102.02;38.98;;;;;;;-1.66;84.64;96858.80;1691009;85;21455;-76
2021/11/26 06:30:49;;;;;;;73.10;34.10;;;;;;;-1.68;84.43;96846.23;1681667;85;21010;-76
2021/11/26 06:33:15;;;;;;;66.90;30.70;;;;;;;-1.72;84.80;96841.47;1668965;86;21502;-76
2021/11/26 06:35:42;;;;;;;66.40;31.50;;;;;;;-1.74;84.80;96841.91;1679314;84;21022;-76
2021/11/26 06:38:08;;;;;;;58.50;28.42;;;;;;;-1.71;84.45;96833.25;1681649;85;21001;-76
2021/11/26 06:40:35;;;;;;;56.42;27.87;;;;;;;-1.71;84.61;96822.41;1683397;84;21316;-76
2021/11/26 06:43:02;;;;;;;52.78;24.98;;;;;;;-1.68;84.84;96805.95;1705945;84;21090;-76
2021/11/26 06:45:28;;;;;;;55.90;26.20;;;;;;;-1.64;85.21;96796.88;1687065;85;20993;-76
2021/11/26 06:47:55;;;;;;;57.10;27.85;;;;;;;-1.63;85.07;96794.70;1698029;84;21035;-75
2021/11/26 06:50:21;;;;;;;58.90;27.62;;;;;;;-1.58;84.58;96796.45;1678359;84;20974;-75
2021/11/26 06:52:48;;;;;;;53.87;26.77;;;;;;;-1.57;85.14;96795.16;1679394;85;21117;-75
2021/11/26 06:55:16;;;;;;;53.92;26.02;;;;;;;-1.52;85.33;96793.83;1682276;84;21021;-75
2021/11/26 06:57:44;;;;;;;55.60;27.35;;;;;;;-1.46;84.89;96787.32;1687478;85;20973;-75
2021/11/26 07:00:14;;;;;;;58.95;27.25;;;;;;;-1.44;84.82;96790.80;1679780;84;21041;-75
2021/11/26 07:02:41;;;;;;;59.95;29.52;;;;;;;-1.39;84.75;96784.28;1673896;84;21073;-75
2021/11/26 07:05:09;;;;;;;58.68;28.20;;;;;;;-1.35;84.75;96771.72;1661886;84;21423;-76
2021/11/26 07:07:36;;;;;;;56.40;28.50;;;;;;;-1.30;84.86;96770.42;1662440;85;21404;-75
2021/11/26 07:10:06;;;;;;;63.87;29.15;;;;;;;-1.22;84.86;96762.16;1666488;86;21030;-75
2021/11/26 07:12:34;;;;;;;58.08;27.90;;;;;;;-1.15;84.75;96752.61;1642021;87;20982;-76
2021/11/26 07:15:03;;;;;;;54.77;29.18;;;;;;;-1.12;84.87;96741.75;1642180;87;21072;-76
2021/11/26 07:17:30;;;;;;;55.83;27.90;;;;;;;-1.09;84.63;96740.45;1686580;84;21075;-76
2021/11/26 07:19:57;;;;;;;60.88;28.32;;;;;;;-1.03;84.57;96748.68;1664775;84;21046;-76
2021/11/26 07:22:23;;;;;;;67.60;31.25;;;;;;;-0.98;84.77;96750.83;1666971;84;21002;-76
2021/11/26 07:24:50;;;;;;;61.35;28.23;;;;;;;-0.89;84.63;96744.71;1670515;84;21089;-77
2021/11/26 07:27:16;;;;;;;64.85;32.55;;;;;;;-0.82;84.60;96739.89;1669040;84;21435;-77
2021/11/26 07:29:44;;;;;;;58.95;28.60;;;;;;;-0.69;84.47;96746.36;1659179;86;21025;-76
2021/11/26 07:32:10;;;;;;;55.70;28.42;;;;;;;-0.58;84.37;96739.34;1659167;85;21034;-79
2021/11/26 07:34:40;;;;;;;52.93;24.15;;;;;;;-0.51;84.27;96732.38;1652593;86;21009;-78
2021/11/26 07:37:09;;;;;;;55.03;24.32;;;;;;;-0.41;84.22;96728.84;1656613;84;20995;-78
2021/11/26 07:39:37;;;;;;;71.28;22.90;;;;;;;-0.30;84.17;96722.69;1668642;86;21077;-79
2021/11/26 07:42:08;;;;;;;67.20;22.67;;;;;;;-0.19;84.22;96716.11;1659934;86;21033;-79
2021/11/26 07:44:38;;;;;;;101.10;24.18;;;;;;;-0.06;84.09;96715.58;1650841;87;21068;-80
2021/11/26 07:47:09;;;;;;;92.67;21.90;;;;;;;0.03;84.01;96708.99;1674374;84;22138;-80
2021/11/26 07:49:37;;;;;;;42.65;20.48;;;;;;;0.15;83.90;96704.54;1667604;84;21362;-81
2021/11/26 07:52:05;;;;;;;39.23;19.37;;;;;;;0.26;83.77;96697.05;1678917;84;20996;-79
2021/11/26 07:54:32;;;;;;;45.55;19.98;;;;;;;0.37;83.59;96693.47;1674570;84;21034;-79
2021/11/26 07:56:58;;;;;;;46.68;20.55;;;;;;;0.47;83.29;96692.95;1680633;84;21429;-78
2021/11/26 07:59:26;;;;;;;38.30;18.87;;;;;;;0.57;83.33;96685.45;1677549;84;21027;-78
2021/11/26 08:01:54;;;;;;;38.23;18.98;;;;;;;0.69;82.99;96691.41;1677869;84;20989;-79
2021/11/26 08:04:20;;;;;;;36.35;18.90;;;;;;;0.79;82.89;96685.23;1680202;85;21029;-78
2021/11/26 08:06:48;;;;;;;35.70;19.15;;;;;;;0.90;82.33;96678.56;1682502;85;21033;-79
2021/11/26 08:09:16;;;;;;;34.40;18.27;;;;;;;0.99;82.37;96675.00;1679189;84;21015;-79
2021/11/26 08:11:45;;;;;;;38.25;19.65;;;;;;;1.08;82.21;96672.23;1677052;84;20990;-77
2021/11/26 08:14:13;;;;;;;43.25;20.50;;;;;;;1.18;81.96;96670.38;1672196;84;21001;-79
2021/11/26 08:16:40;;;;;;;36.90;19.37;;;;;;;1.28;81.61;96660.66;1671575;84;20999;-78
2021/11/26 08:19:08;;;;;;;34.80;18.27;;;;;;;1.36;81.06;96652.29;1678394;84;20977;-78
2021/11/26 08:21:34;;;;;;;38.13;18.90;;;;;;;1.43;80.59;96648.72;1651375;84;21123;-78
2021/11/26 08:24:03;;;;;;;35.90;19.48;;;;;;;1.54;80.95;96647.23;1677523;84;21011;-77
2021/11/26 08:26:31;;;;;;;42.08;19.45;;;;;;;1.64;81.16;96647.09;1676844;83;21037;-77
2021/11/26 08:28:57;;;;;;;37.93;19.05;;;;;;;1.72;80.82;96645.23;1678668;84;20981;-77
2021/11/26 08:31:24;;;;;;;36.85;18.45;;;;;;;1.82;80.73;96640.27;1673081;84;21002;-77
2021/11/26 08:33:50;;;;;;;38.53;18.30;;;;;;;1.93;80.49;96639.22;1674651;83;21026;-77
2021/11/26 08:36:17;;;;;;;39.05;18.42;;;;;;;2.01;80.02;96635.17;1675496;85;21061;-77
2021/11/26 08:38:43;;;;;;;33.02;18.17;;;;;;;2.10;79.05;96625.43;1668616;84;20986;-78
2021/11/26 08:41:10;;;;;;;37.78;18.20;;;;;;;2.21;80.07;96613.45;1669182;85;21021;-78
2021/11/26 08:43:36;;;;;;;35.90;17.80;;;;;;;2.32;79.81;96607.19;1662151;86;21005;-75
2021/11/26 08:46:03;;;;;;;35.03;16.40;;;;;;;2.41;79.78;96601.75;1666163;84;20982;-74
2021/11/26 08:48:29;;;;;;;30.57;16.77;;;;;;;2.48;79.77;96590.30;1676392;84;20980;-73
2021/11/26 08:50:56;;;;;;;33.95;18.05;;;;;;;2.61;78.60;96579.56;1664311;84;21478;-77
2021/11/26 08:53:23;;;;;;;31.65;17.52;;;;;;;2.72;78.02;96571.08;1669197;84;21395;-76
2021/11/26 08:55:54;;;;;;;35.48;17.75;;;;;;;2.84;78.19;96566.45;1666932;85;20998;-77
2021/11/26 08:58:19;;;;;;;33.50;16.30;;;;;;;2.96;77.63;96550.50;1676968;84;20965;-76
2021/11/26 09:00:46;;;;;;;29.12;16.23;;;;;;;3.04;75.65;96545.09;1668743;83;21116;-76
2021/11/26 09:03:14;;;;;;;31.82;16.82;;;;;;;3.14;76.31;96543.98;1657958;84;21073;-75
2021/11/26 09:05:41;;;;;;;40.15;17.50;;;;;;;3.25;76.56;96533.70;1669707;85;21006;-76
2021/11/26 09:08:14;;;;;;;30.17;16.40;;;;;;;3.33;74.40;96518.67;1666993;86;21042;-77
2021/11/26 09:10:38;;;;;;;31.02;16.05;;;;;;;3.41;75.73;96511.93;1679402;84;21077;-76
2021/11/26 09:13:06;;;;;;;37.15;17.98;;;;;;;3.49;75.18;96509.12;1663044;83;21029;-77
2021/11/26 09:15:35;;;;;;;30.60;15.68;;;;;;;3.58;75.06;96498.84;1675807;84;20986;-76
2021/11/26 09:18:04;;;;;;;26.65;15.50;;;;;;;3.67;74.89;96494.24;1675805;84;20993;-76
2021/11/26 09:20:33;;;;;;;26.50;14.93;;;;;;;3.75;74.92;96479.63;1674832;84;21016;-77
2021/11/26 09:22:59;;;;;;;28.00;15.03;;;;;;;3.84;73.43;96479.81;1673194;84;20994;-76
2021/11/26 09:25:28;;;;;;;26.12;14.80;;;;;;;3.92;72.82;96469.12;1676509;84;20982;-77
2021/11/26 09:27:55;;;;;;;30.10;15.23;;;;;;;3.98;71.97;96460.23;1671618;84;21010;-76
2021/11/26 09:30:24;;;;;;;29.27;15.93;;;;;;;4.05;71.20;96448.66;1676020;84;21077;-77
2021/11/26 09:32:51;;;;;;;37.45;16.52;;;;;;;4.11;70.29;96427.97;1662914;84;21000;-77
2021/11/26 09:35:18;;;;;;;25.72;15.15;;;;;;;4.20;70.20;96428.55;1676248;84;20992;-77
2021/11/26 09:37:45;;;;;;;33.00;15.38;;;;;;;4.29;71.46;96418.70;1654606;85;21065;-77
2021/11/26 09:40:13;;;;;;;35.40;15.93;;;;;;;4.38;70.27;96409.69;1674440;84;20997;-77
2021/11/26 09:42:44;;;;;;;26.27;15.63;;;;;;;4.41;68.72;96392.11;1672598;84;21073;-77
2021/11/26 09:45:17;;;;;;;28.47;16.42;;;;;;;4.45;69.72;96396.33;1675781;84;21061;-76
2021/11/26 09:47:43;;;;;;;29.48;15.70;;;;;;;4.49;71.11;96396.64;1668755;85;21014;-76
2021/11/26 09:50:11;;;;;;;30.65;15.08;;;;;;;4.49;70.38;96388.78;1668964;86;21061;-75
2021/11/26 09:52:40;;;;;;;29.92;15.58;;;;;;;4.48;70.73;96380.51;1675694;83;21608;-76
2021/11/26 09:55:08;;;;;;;30.17;15.83;;;;;;;4.49;70.11;96373.51;1685101;85;21426;-75
2021/11/26 09:57:35;;;;;;;34.60;16.93;;;;;;;4.49;70.29;96365.16;1677369;84;21009;-75
2021/11/26 10:00:06;;;;;;;31.07;15.43;;;;;;;4.44;69.28;96364.45;1691690;83;20983;-76
2021/11/26 10:02:32;;;;;;;38.83;17.85;;;;;;;4.42;69.46;96353.61;1683727;83;20985;-76
2021/11/26 10:05:08;;;;;;;35.38;16.65;;;;;;;4.42;70.56;96349.23;1686047;84;21413;-76
2021/11/26 10:07:51;;;;;;;29.55;16.60;;;;;;;4.40;69.16;96335.76;1672022;84;20985;-75
2021/11/26 10:10:28;;;;;;;35.33;16.52;;;;;;;4.35;69.29;96323.64;1681314;84;21016;-75
2021/11/26 10:13:08;;;;;;;33.58;16.37;;;;;;;4.39;69.82;96310.44;1682202;84;21035;-75
2021/11/26 10:15:43;;;;;;;31.70;17.23;;;;;;;4.41;70.33;96307.30;1682700;84;21133;-75
2021/11/26 10:18:15;;;;;;;;;;;;;;;4.41;68.62;96296.37;1693409;84;21090;-75
2021/11/26 10:20:59;;;;;;;35.83;17.42;;;;;;;4.41;69.27;96283.70;1676798;84;20447;-75
2021/11/26 10:23:31;;;;;;;40.77;18.47;;;;;;;4.42;70.07;96282.34;1680897;84;21473;-76
2021/11/26 10:26:24;;;;;;;30.40;16.65;;;;;;;4.46;69.98;96273.91;1678862;84;21044;-76
2021/11/26 10:29:01;;;;;;;30.70;16.60;;;;;;;4.46;67.87;96254.23;1676461;84;21041;-76
2021/11/26 10:31:41;;;;;;;34.33;16.95;;;;;;;4.46;68.08;96241.12;1666379;84;21054;-76
2021/11/26 10:34:09;;;;;;;31.40;17.52;;;;;;;4.49;68.53;96256.77;1668947;84;21017;-76
2021/11/26 10:36:45;;;;;;;31.80;17.57;;;;;;;4.53;68.43;96239.98;1676979;84;21006;-76
2021/11/26 10:39:20;;;;;;;31.65;16.62;;;;;;;4.60;68.87;96226.21;1679080;83;21021;-76
2021/11/26 10:41:52;;;;;;;31.82;15.63;;;;;;;4.65;68.04;96230.84;1683199;83;21004;-77
2021/11/26 10:44:21;;;;;;;29.60;15.40;;;;;;;4.75;69.13;96219.59;1672464;84;20990;-75
2021/11/26 11:00:10;;;;;;;32.33;16.40;;;;;;;5.60;66.95;96177.52;1674786;84;20993;-75
2021/11/26 11:02:44;;;;;;;27.62;15.63;;;;;;;5.73;64.35;96180.52;1665726;84;21040;-75
2021/11/26 11:05:31;;;;;;;27.13;15.58;;;;;;;5.84;65.49;96176.60;1673236;84;21041;-75
2021/11/26 11:08:02;;;;;;;31.77;16.42;;;;;;;5.92;64.25;96150.42;1680123;84;21000;-74
2021/11/26 11:10:36;;;;;;;27.67;14.65;;;;;;;6.01;64.67;96141.30;1687919;83;20940;-76
2021/11/26 11:13:20;;;;;;;23.87;14.80;;;;;;;6.23;64.02;96143.05;1689576;84;21041;-76
2021/11/26 11:15:49;;;;;;;26.07;14.65;;;;;;;6.62;64.62;96141.87;1672762;84;21419;-76
2021/11/26 11:18:17;;;;;;;26.37;14.38;;;;;;;6.99;62.96;96127.08;1673201;84;20974;-74
2021/11/26 11:20:45;;;;;;;28.98;13.80;;;;;;;7.21;61.94;96128.27;1677398;84;21410;-75
2021/11/26 11:23:15;;;;;;;28.27;14.75;;;;;;;7.02;58.60;96111.11;1677036;84;21025;-75
2021/11/26 11:25:43;;;;;;;23.57;13.25;;;;;;;6.84;59.51;96102.28;1673541;84;21017;-74
2021/11/26 11:28:11;;;;;;;21.73;12.70;;;;;;;6.74;60.45;96099.22;1670845;84;21057;-74
2021/11/26 11:30:40;;;;;;;22.67;13.10;;;;;;;6.71;60.31;96077.84;1657884;85;21013;-74
2021/11/26 11:33:06;;;;;;;20.95;13.18;;;;;;;6.69;60.58;96071.77;1668617;84;20963;-74
2021/11/26 11:35:41;;;;;;;28.60;14.10;;;;;;;6.68;61.75;96059.53;1682936;85;21490;-75
2021/11/26 11:38:09;;;;;;;29.15;12.43;;;;;;;6.68;61.43;96045.05;1673392;84;21400;-75